sensor_id;sensor_type;location;lat;lon;timestamp;P1;durP1;ratioP1;P2;durP2;ratioP2
22675;SDS011;12521;43.310;21.876;2022-12-29T14:26:35;114.0;;;89.0;;
22675;SDS011;12521;43.310;21.876;2022-12-29T14:31:35;114.0;;;89.0;;
22675;SDS011;12521;43.310;21.876;2022-12-29T14:36:25;114.0;;;89.0;;
22675;SDS011;12521;43.310;21.876;2022-12-29T14:41:29;114.0;;;89.0;;
22675;SDS011;12521;43.310;21.876;2022-12-29T14:46:09;147.0;;;111.0;;
22675;SDS011;12521;43.310;21.876;2022-12-29T14:50:46;147.0;;;111.0;;
22675;SDS011;12521;43.310;21.876;2022-12-29T14:55:41;180.0;;;133.0;;
22675;SDS011;12521;43.310;21.876;2022-12-29T15:00:29;180.0;;;133.0;;
22675;SDS011;12521;43.310;21.876;2022-12-29T15:05:33;238.0;;;172.0;;
22675;SDS011;12521;43.310;21.876;2022-12-29T15:10:21;238.0;;;172.0;;
22675;SDS011;12521;43.310;21.876;2022-12-29T15:15:27;296.0;;;210.0;;
22675;SDS011;12521;43.310;21.876;2022-12-29T15:20:26;296.0;;;210.0;;
22675;SDS011;12521;43.310;21.876;2022-12-29T15:25:16;272.0;;;213.0;;
22675;SDS011;12521;43.310;21.876;2022-12-29T15:30:00;272.0;;;213.0;;
22675;SDS011;12521;43.310;21.876;2022-12-29T15:34:39;248.0;;;216.0;;
22675;SDS011;12521;43.310;21.876;2022-12-29T15:39:19;248.0;;;216.0;;
22675;SDS011;12521;43.310;21.876;2022-12-29T15:44:08;248.0;;;216.0;;
22675;SDS011;12521;43.310;21.876;2022-12-29T15:48:56;244.0;;;210.0;;
22675;SDS011;12521;43.310;21.876;2022-12-29T15:53:32;244.0;;;210.0;;
22675;SDS011;12521;43.310;21.876;2022-12-29T15:58:21;240.0;;;204.0;;
22675;SDS011;12521;43.310;21.876;2022-12-29T16:03:03;240.0;;;204.0;;
22675;SDS011;12521;43.310;21.876;2022-12-29T16:07:54;284.0;;;242.0;;
22675;SDS011;12521;43.310;21.876;2022-12-29T16:12:36;284.0;;;242.0;;
22675;SDS011;12521;43.310;21.876;2022-12-29T16:17:18;327.0;;;280.0;;
22675;SDS011;12521;43.310;21.876;2022-12-29T16:22:11;327.0;;;280.0;;
22675;SDS011;12521;43.310;21.876;2022-12-29T16:27:09;342.0;;;292.0;;
22675;SDS011;12521;43.310;21.876;2022-12-29T16:32:26;342.0;;;292.0;;
22675;SDS011;12521;43.310;21.876;2022-12-29T16:37:28;356.0;;;303.0;;
22675;SDS011;12521;43.310;21.876;2022-12-29T16:42:34;356.0;;;303.0;;
22675;SDS011;12521;43.310;21.876;2022-12-29T16:47:22;304.0;;;256.0;;
22675;SDS011;12521;43.310;21.876;2022-12-29T16:51:59;304.0;;;256.0;;
22675;SDS011;12521;43.310;21.876;2022-12-29T16:56:37;253.0;;;209.0;;
22675;SDS011;12521;43.310;21.876;2022-12-29T17:01:20;253.0;;;209.0;;
22675;SDS011;12521;43.310;21.876;2022-12-29T17:05:57;252.0;;;210.0;;
22675;SDS011;12521;43.310;21.876;2022-12-29T17:10:33;252.0;;;210.0;;
22675;SDS011;12521;43.310;21.876;2022-12-29T17:15:15;250.0;;;210.0;;
22675;SDS011;12521;43.310;21.876;2022-12-29T17:20:05;250.0;;;210.0;;
22675;SDS011;12521;43.310;21.876;2022-12-29T17:24:52;244.0;;;202.0;;
22675;SDS011;12521;43.310;21.876;2022-12-29T17:29:35;244.0;;;202.0;;
22675;SDS011;12521;43.310;21.876;2022-12-29T17:34:17;244.0;;;202.0;;
22675;SDS011;12521;43.310;21.876;2022-12-29T17:38:53;237.0;;;195.0;;
22675;SDS011;12521;43.310;21.876;2022-12-29T17:43:29;237.0;;;195.0;;
22675;SDS011;12521;43.310;21.876;2022-12-29T17:48:11;240.0;;;192.0;;
22675;SDS011;12521;43.310;21.876;2022-12-29T17:52:57;240.0;;;192.0;;
22675;SDS011;12521;43.310;21.876;2022-12-29T17:57:46;242.0;;;188.0;;
22675;SDS011;12521;43.310;21.876;2022-12-29T18:02:28;242.0;;;188.0;;
22675;SDS011;12521;43.310;21.876;2022-12-29T18:07:10;237.0;;;196.0;;
22675;SDS011;12521;43.310;21.876;2022-12-29T18:11:46;237.0;;;196.0;;
22675;SDS011;12521;43.310;21.876;2022-12-29T18:16:23;232.0;;;204.0;;
22675;SDS011;12521;43.310;21.876;2022-12-29T18:21:01;232.0;;;204.0;;
22675;SDS011;12521;43.310;21.876;2022-12-29T18:25:41;217.0;;;188.0;;
22675;SDS011;12521;43.310;21.876;2022-12-29T18:30:26;217.0;;;188.0;;
22675;SDS011;12521;43.310;21.876;2022-12-29T18:35:05;202.0;;;173.0;;
22675;SDS011;12521;43.310;21.876;2022-12-29T18:39:53;202.0;;;173.0;;
22675;SDS011;12521;43.310;21.876;2022-12-29T18:44:29;202.0;;;173.0;;
22675;SDS011;12521;43.310;21.876;2022-12-29T18:49:05;212.0;;;176.0;;
22675;SDS011;12521;43.310;21.876;2022-12-29T18:53:42;212.0;;;176.0;;
22675;SDS011;12521;43.310;21.876;2022-12-29T18:58:20;223.0;;;180.0;;
22675;SDS011;12521;43.310;21.876;2022-12-29T19:02:58;223.0;;;180.0;;
22675;SDS011;12521;43.310;21.876;2022-12-29T19:07:34;204.0;;;168.0;;
22675;SDS011;12521;43.310;21.876;2022-12-29T19:12:14;204.0;;;168.0;;
22675;SDS011;12521;43.310;21.876;2022-12-29T19:16:51;186.0;;;156.0;;
22675;SDS011;12521;43.310;21.876;2022-12-29T19:21:27;186.0;;;156.0;;
22675;SDS011;12521;43.310;21.876;2022-12-29T19:26:04;196.0;;;162.0;;
22675;SDS011;12521;43.310;21.876;2022-12-29T19:30:41;196.0;;;162.0;;
22675;SDS011;12521;43.310;21.876;2022-12-29T19:35:18;207.0;;;169.0;;
22675;SDS011;12521;43.310;21.876;2022-12-29T19:39:57;207.0;;;169.0;;
22675;SDS011;12521;43.310;21.876;2022-12-29T19:44:33;207.0;;;169.0;;
22675;SDS011;12521;43.310;21.876;2022-12-29T19:49:09;240.0;;;195.0;;
22675;SDS011;12521;43.310;21.876;2022-12-29T19:53:45;240.0;;;195.0;;
22675;SDS011;12521;43.310;21.876;2022-12-29T19:58:22;274.0;;;221.0;;
22675;SDS011;12521;43.310;21.876;2022-12-29T20:02:58;274.0;;;221.0;;
22675;SDS011;12521;43.310;21.876;2022-12-29T20:07:34;264.0;;;216.0;;
22675;SDS011;12521;43.310;21.876;2022-12-29T20:12:13;264.0;;;216.0;;
22675;SDS011;12521;43.310;21.876;2022-12-29T20:16:52;253.0;;;210.0;;
22675;SDS011;12521;43.310;21.876;2022-12-29T20:21:29;253.0;;;210.0;;
22675;SDS011;12521;43.310;21.876;2022-12-29T20:26:06;240.0;;;200.0;;
22675;SDS011;12521;43.310;21.876;2022-12-29T20:30:54;240.0;;;200.0;;
22675;SDS011;12521;43.310;21.876;2022-12-29T20:35:39;228.0;;;189.0;;
22675;SDS011;12521;43.310;21.876;2022-12-29T20:40:16;228.0;;;189.0;;
22675;SDS011;12521;43.310;21.876;2022-12-29T20:44:53;237.0;;;205.0;;
22675;SDS011;12521;43.310;21.876;2022-12-29T20:49:31;237.0;;;205.0;;
22675;SDS011;12521;43.310;21.876;2022-12-29T20:54:08;237.0;;;205.0;;
22675;SDS011;12521;43.310;21.876;2022-12-29T20:58:47;246.0;;;221.0;;
22675;SDS011;12521;43.310;21.876;2022-12-29T21:03:25;246.0;;;221.0;;
22675;SDS011;12521;43.310;21.876;2022-12-29T21:08:01;248.0;;;218.0;;
22675;SDS011;12521;43.310;21.876;2022-12-29T21:12:37;248.0;;;218.0;;
22675;SDS011;12521;43.310;21.876;2022-12-29T21:17:13;251.0;;;214.0;;
22675;SDS011;12521;43.310;21.876;2022-12-29T21:21:49;251.0;;;214.0;;
22675;SDS011;12521;43.310;21.876;2022-12-29T21:26:25;230.0;;;194.0;;
22675;SDS011;12521;43.310;21.876;2022-12-29T21:31:07;230.0;;;194.0;;
22675;SDS011;12521;43.310;21.876;2022-12-29T21:36:04;209.0;;;174.0;;
22675;SDS011;12521;43.310;21.876;2022-12-29T21:40:43;209.0;;;174.0;;
22675;SDS011;12521;43.310;21.876;2022-12-29T21:45:19;198.0;;;168.0;;
22675;SDS011;12521;43.310;21.876;2022-12-29T21:49:55;198.0;;;168.0;;
22675;SDS011;12521;43.310;21.876;2022-12-29T21:54:32;198.0;;;168.0;;
22675;SDS011;12521;43.310;21.876;2022-12-29T21:59:09;188.0;;;161.0;;
22675;SDS011;12521;43.310;21.876;2022-12-29T22:03:50;188.0;;;161.0;;
22675;SDS011;12521;43.310;21.876;2022-12-29T22:08:27;198.0;;;169.0;;
22675;SDS011;12521;43.310;21.876;2022-12-29T22:13:04;198.0;;;169.0;;
22675;SDS011;12521;43.310;21.876;2022-12-29T22:17:43;209.0;;;177.0;;
22675;SDS011;12521;43.310;21.876;2022-12-29T22:22:21;209.0;;;177.0;;
22675;SDS011;12521;43.310;21.876;2022-12-29T22:26:57;232.0;;;192.0;;
22675;SDS011;12521;43.310;21.876;2022-12-29T22:31:33;232.0;;;192.0;;
22675;SDS011;12521;43.310;21.876;2022-12-29T22:36:09;254.0;;;207.0;;
22675;SDS011;12521;43.310;21.876;2022-12-29T22:40:45;254.0;;;207.0;;
22675;SDS011;12521;43.310;21.876;2022-12-29T22:45:21;260.0;;;214.0;;
22675;SDS011;12521;43.310;21.876;2022-12-29T22:49:57;260.0;;;214.0;;
22675;SDS011;12521;43.310;21.876;2022-12-29T22:54:34;260.0;;;214.0;;
22675;SDS011;12521;43.310;21.876;2022-12-29T22:59:12;267.0;;;220.0;;
22675;SDS011;12521;43.310;21.876;2022-12-29T23:03:51;267.0;;;220.0;;
22675;SDS011;12521;43.310;21.876;2022-12-29T23:08:32;268.0;;;222.0;;
22675;SDS011;12521;43.310;21.876;2022-12-29T23:13:14;268.0;;;222.0;;
22675;SDS011;12521;43.310;21.876;2022-12-29T23:17:51;268.0;;;224.0;;
22675;SDS011;12521;43.310;21.876;2022-12-29T23:22:27;268.0;;;224.0;;
22675;SDS011;12521;43.310;21.876;2022-12-29T23:27:04;232.0;;;192.0;;
22675;SDS011;12521;43.310;21.876;2022-12-29T23:31:40;232.0;;;192.0;;
22675;SDS011;12521;43.310;21.876;2022-12-29T23:36:17;197.0;;;161.0;;
22675;SDS011;12521;43.310;21.876;2022-12-29T23:40:53;197.0;;;161.0;;
22675;SDS011;12521;43.310;21.876;2022-12-29T23:45:29;174.0;;;140.0;;
22675;SDS011;12521;43.310;21.876;2022-12-29T23:50:09;174.0;;;140.0;;
22675;SDS011;12521;43.310;21.876;2022-12-29T23:54:45;174.0;;;140.0;;
22675;SDS011;12521;43.310;21.876;2022-12-29T23:59:21;151.0;;;119.0;;
